Terminal Aerodrome Forecast
Issued by NWS

Home | Current Version | Previous Version | Text Only | Print | Product List | Glossary On
Versions: 1 2 3 4 5 6 7 8 9 10 11 12 13 14 15 16 17 18 19 20 21 22 23 24 25 26 27 28 29 30 31 32 33 34 35 36 37
000
FTUS43 KDLH 271700
TAFHIB
TAF
KHIB 271733Z 2718/2818 27006KT P6SM BKN045
     FM280000 VRB03KT P6SM FEW050
      TEMPO 2808/2812 1SM BR SCT003
     FM281500 18006KT P6SM SCT050=

USA.gov is the U.S. government's official web portal to all federal, state and local government web resources and services.